Clark, New Jersey
Current Conditions -  °F | °C
As of 9:35 PM on Friday 24 Oct 2014 (Local Time) from KLDJ Reporting Station
Clear Clear  
Wind Chill: 63°   Ceiling: Unl
Heat Index: 63°   Visibility: 10mi
Dew Point: 44°   Wind: 0mph
Humidity: 49%   Direction: NA
Pressure: 29.85"   Gusts: NA
Location:  40.62°N, 74.31°W
Report Text: KLDJ 250135Z AUTO 00000KT 10SM CLR 17/07 A2985 RMK AO2 T01730066
Loading
Personal Weather Stations






























Interactive Weather Map
Tropical Storm Tracking
New forecast layout! Learn more

10-Day Weather Forecast

Advertisements
Track Severe Weather on mobile